Aeroboteco Virtual Airlines! Uma nuvem a frente.



 INFORMAÇÕES METEOROLÓGICAS
METAR FOR HESC
ADDS - METARS form results

(0529 UTC 28 October 2020)
Data provider http://aviationweather.gov/metar/data/
 
METAR text: HESC 280500Z 00000KT CAVOK 19/04 Q1023 NOSIG
Conditions at: HESC (ST CATHERINE , EG) observed 0500 UTC 28 October 2020
Temperature: 19.0°C (66°F)
Dewpoint: 4.0°C (39°F) [RH = 37%]
Pressure (altimeter): 30.21 inches Hg (1023.0 mb)
Winds: calm
Visibility: 6 or more miles (10+ km)
Ceiling: ceiling and visibility are OK
Clouds: unknown
Weather: no significant weather observed at this time

Forecast for: HESC (ST CATHERINE , EG)
Text: TAF HESC 280500Z 2806/2912 27010KT CAVOK
Forecast period: 0600 UTC 28 October 2020 to 1200 UTC 29 October 2020
Forecast type: FROM: standard forecast or significant change
Winds: from the W (270 degrees) at 12 MPH (10 knots; 5.1 m/s)
Visibility: 6 or more miles (10+ km)
Ceiling: unknown
Clouds: missing
Weather: NSW  (no significant weather)

 MAPA DO AEROPORTO

 INFORMAÇÕES DA PISTA
Pista 17 Tamanho da pista 6939 ft Largura da pista 118 ft
Elevação da pista 4299 ft Ranhura da pista 0 ft Proa da pista 172
Pista 35 Tamanho da pista 6939 ft Largura da pista 118 ft
Elevação da pista 4368 ft Ranhura da pista 0 ft Proa da pista 352

 FREQUÊNCIAS DO AEROPORTO
Tipo RDO Nome Cathrine R Frequência 579 MHZ
Tipo TWR Nome TWR Frequência 122.8 MHZ

 AUXÍLIOS DE NAVEGAÇÃO PRÓXIMOS AO AEROPORTO
Tipo NDB Nome St Catherine Frequência 262 KHZ